Saint David, Maine
Current Conditions -  °F | °C
As of 10:53 AM on Friday 21 Nov 2014 (Local Time) from KFVE Reporting Station
Light Snow Light Snow  
Wind Chill:   Ceiling: 2500
Heat Index: 20°   Visibility: 6mi
Dew Point: 14°   Wind: 18mph
Humidity: 78%   Direction: 300°WNW
Pressure: 29.78"   Gusts: 25mph
Location:  47.34°N, 68.24°W
Report Text: KFVE 211553Z AUTO 30016G22KT 6SM -SN SCT020 OVC025 M07/M10 A2978 RMK AO2 PK WND 31027/1527 UPB22E27SNE22B27 SLP100 P0000 T10671100
Loading
Personal Weather Stations






























Interactive Weather Map New forecast layout! Learn more

10-Day Weather Forecast

Advertisements
Track Severe Weather on mobile